createdAt,value
2018-05-09T00:01:55.318Z,5.20
2018-05-09T00:04:22.833Z,5.77
2018-05-09T00:06:50.351Z,5.80
2018-05-09T00:09:17.983Z,5.57
2018-05-09T00:11:45.476Z,6.00
2018-05-09T00:14:12.987Z,5.83
2018-05-09T00:16:40.620Z,5.97
2018-05-09T00:19:08.106Z,5.90
2018-05-09T00:21:35.603Z,5.23
2018-05-09T00:24:03.251Z,4.70
2018-05-09T00:26:30.748Z,6.17
2018-05-09T00:28:58.240Z,5.37
2018-05-09T00:31:26.630Z,5.50
2018-05-09T00:33:54.135Z,5.77
2018-05-09T00:36:21.644Z,5.97
2018-05-09T00:38:49.180Z,6.17
2018-05-09T00:41:17.443Z,6.80
2018-05-09T00:43:44.943Z,6.40
2018-05-09T00:46:12.482Z,5.83
2018-05-09T00:48:39.984Z,6.10
2018-05-09T00:51:07.480Z,6.77
2018-05-09T00:53:35.011Z,6.60
2018-05-09T00:56:02.528Z,5.90
2018-05-09T00:58:30.070Z,5.80
2018-05-09T01:00:57.579Z,5.80
2018-05-09T01:03:25.101Z,5.83
2018-05-09T01:05:53.393Z,6.13
2018-05-09T01:08:20.894Z,6.03
2018-05-09T01:10:48.382Z,6.00
2018-05-09T01:13:16.778Z,6.30
2018-05-09T01:15:45.040Z,6.13
2018-05-09T01:18:12.546Z,6.40
2018-05-09T01:20:40.851Z,5.87
2018-05-09T01:23:08.349Z,6.40
2018-05-09T01:25:35.845Z,6.30
2018-05-09T01:28:03.366Z,6.60
2018-05-09T01:30:30.850Z,6.40
2018-05-09T01:32:58.380Z,5.87
2018-05-09T01:35:26.634Z,5.50
2018-05-09T01:37:54.129Z,5.80
2018-05-09T01:40:21.747Z,5.93
2018-05-09T01:42:49.243Z,5.90
2018-05-09T01:45:16.731Z,6.10
2018-05-09T01:47:44.274Z,6.03
2018-05-09T01:50:11.764Z,5.93
2018-05-09T01:52:39.263Z,6.30
2018-05-09T01:55:07.561Z,6.70
2018-05-09T01:57:35.047Z,6.00
2018-05-09T02:00:02.548Z,6.13
2018-05-09T02:02:30.119Z,6.30
2018-05-09T02:04:57.619Z,5.90
2018-05-09T02:07:25.112Z,6.40
2018-05-09T02:09:52.643Z,6.00
2018-05-09T02:12:20.144Z,6.00
2018-05-09T02:14:48.407Z,6.23
2018-05-09T02:17:15.938Z,6.37
2018-05-09T02:19:43.474Z,6.90
2018-05-09T02:22:11.721Z,6.43
2018-05-09T02:24:39.250Z,6.27
2018-05-09T02:27:06.763Z,6.43
2018-05-09T02:29:34.274Z,6.90
2018-05-09T02:32:07.666Z,6.20
2018-05-09T02:34:35.181Z,6.43
2018-05-09T02:37:02.666Z,6.13
2018-05-09T02:39:30.289Z,6.77
2018-05-09T02:41:58.567Z,6.30
2018-05-09T02:44:26.064Z,6.37
2018-05-09T02:46:54.354Z,6.73
2018-05-09T02:49:21.852Z,6.10
2018-05-09T02:51:49.357Z,6.83
2018-05-09T02:54:16.882Z,6.17
2018-05-09T02:56:44.367Z,6.80
2018-05-09T02:59:11.854Z,5.87
2018-05-09T03:01:39.392Z,6.10
2018-05-09T03:04:06.904Z,5.83
2018-05-09T03:06:34.382Z,5.60
2018-05-09T03:09:01.901Z,7.30
2018-05-09T03:11:29.381Z,7.50
2018-05-09T03:13:56.871Z,6.53
2018-05-09T03:16:24.394Z,7.23
2018-05-09T03:18:52.650Z,6.73
2018-05-09T03:21:20.152Z,6.70
2018-05-09T03:23:48.487Z,6.63
2018-05-09T03:26:15.981Z,6.43
2018-05-09T03:28:43.464Z,6.90
2018-05-09T03:31:11.766Z,6.63
2018-05-09T03:33:40.014Z,7.63
2018-05-09T03:36:07.516Z,6.97
2018-05-09T03:38:35.801Z,6.37
2018-05-09T03:41:03.290Z,7.03
2018-05-09T03:43:31.558Z,7.20
2018-05-09T03:45:59.078Z,7.57
2018-05-09T03:48:26.571Z,7.10
2018-05-09T03:50:54.076Z,7.60
2018-05-09T03:53:22.402Z,7.80
2018-05-09T03:55:50.629Z,6.90
2018-05-09T03:58:18.113Z,7.13
2018-05-09T04:00:45.643Z,6.53
2018-05-09T04:03:25.095Z,6.23
2018-05-09T04:06:04.446Z,6.83
2018-05-09T04:08:43.746Z,6.33
2018-05-09T04:11:12.124Z,5.80
2018-05-09T04:13:39.623Z,6.87
2018-05-09T04:16:07.112Z,6.57
2018-05-09T04:18:34.633Z,6.63
2018-05-09T04:21:02.129Z,6.80
2018-05-09T04:23:29.659Z,6.67
2018-05-09T04:25:57.139Z,6.70
2018-05-09T04:28:24.635Z,6.67
2018-05-09T04:30:52.941Z,7.33
2018-05-09T04:33:20.431Z,7.87
2018-05-09T04:35:47.925Z,6.27
2018-05-09T04:38:15.447Z,6.80
2018-05-09T04:40:42.948Z,6.30
2018-05-09T04:43:10.479Z,7.00
2018-05-09T04:45:38.734Z,5.83
2018-05-09T04:48:06.228Z,6.53
2018-05-09T04:50:34.635Z,7.40
2018-05-09T04:53:02.123Z,7.30
2018-05-09T04:55:29.738Z,7.67
2018-05-09T04:57:57.163Z,7.10
2018-05-09T05:00:25.416Z,6.43
2018-05-09T05:02:53.733Z,6.30
2018-05-09T05:05:21.995Z,7.13
2018-05-09T05:07:49.484Z,5.90
2018-05-09T05:10:17.168Z,7.00
2018-05-09T05:12:44.676Z,7.13
2018-05-09T05:15:12.163Z,5.90
2018-05-09T05:17:39.814Z,5.70
2018-05-09T05:20:07.314Z,7.20
2018-05-09T05:22:34.804Z,6.97
2018-05-09T05:25:03.112Z,6.50
2018-05-09T05:27:30.609Z,7.80
2018-05-09T05:29:58.135Z,7.10
2018-05-09T05:32:26.529Z,6.70
2018-05-09T05:34:54.026Z,6.70
2018-05-09T05:37:21.518Z,6.77
2018-05-09T05:39:49.069Z,7.03
2018-05-09T05:42:16.600Z,7.10
2018-05-09T05:44:44.514Z,6.83
2018-05-09T05:47:12.047Z,6.10
2018-05-09T05:49:40.302Z,6.67
2018-05-09T05:52:07.786Z,8.20
2018-05-09T05:54:35.719Z,8.50
2018-05-09T05:57:03.217Z,8.77
2018-05-09T05:59:30.719Z,7.60
2018-05-09T06:01:58.261Z,7.50
2018-05-09T06:04:25.768Z,7.60
2018-05-09T06:06:53.303Z,7.20
2018-05-09T06:09:20.791Z,8.73
2018-05-09T06:11:48.281Z,7.43
2018-05-09T06:14:15.810Z,6.97
2018-05-09T06:16:43.296Z,8.37
2018-05-09T06:19:10.811Z,6.80
2018-05-09T06:21:38.300Z,6.20
2018-05-09T06:24:05.898Z,6.50
2018-05-09T06:26:33.330Z,6.83
2018-05-09T06:29:00.815Z,6.60
2018-05-09T06:31:28.307Z,7.63
2018-05-09T06:33:55.837Z,6.30
2018-05-09T06:36:23.350Z,6.60
2018-05-09T06:38:50.937Z,7.40
2018-05-09T06:41:18.431Z,7.80
2018-05-09T06:43:46.722Z,6.80
2018-05-09T06:46:14.998Z,5.73
2018-05-09T06:48:43.258Z,6.07
2018-05-09T06:51:10.742Z,6.57
2018-05-09T06:53:38.301Z,6.10
2018-05-09T06:56:05.789Z,6.33
2018-05-09T06:58:33.281Z,6.60
2018-05-09T07:01:01.584Z,5.63
2018-05-09T07:03:29.093Z,7.20
2018-05-09T07:05:56.627Z,8.03
2018-05-09T07:08:24.120Z,6.57
2018-05-09T07:10:51.606Z,6.47
2018-05-09T07:13:19.143Z,6.20
2018-05-09T07:15:46.639Z,7.00
2018-05-09T07:18:14.134Z,6.30
2018-05-09T07:20:41.660Z,6.93
2018-05-09T07:23:09.235Z,6.60
2018-05-09T07:25:36.642Z,9.70
2018-05-09T07:28:04.209Z,6.97
2018-05-09T07:30:31.698Z,7.70
2018-05-09T07:32:59.174Z,6.60
2018-05-09T07:35:27.487Z,7.03
2018-05-09T07:37:54.974Z,7.17
2018-05-09T07:40:22.471Z,6.67
2018-05-09T07:42:50.010Z,7.73
2018-05-09T07:45:17.498Z,7.33
2018-05-09T07:47:45.053Z,6.90
2018-05-09T07:50:12.605Z,7.60
2018-05-09T07:52:40.091Z,6.90
2018-05-09T07:55:07.590Z,7.10
2018-05-09T07:57:35.136Z,6.90
2018-05-09T08:00:02.629Z,6.60
2018-05-09T08:02:30.130Z,7.20
2018-05-09T08:04:57.657Z,7.60
2018-05-09T08:07:25.153Z,7.03
2018-05-09T08:09:52.646Z,7.20
2018-05-09T08:12:20.179Z,7.40
2018-05-09T08:14:47.664Z,7.30
2018-05-09T08:17:15.155Z,7.13
2018-05-09T08:19:42.670Z,6.77
2018-05-09T08:22:10.183Z,7.60
2018-05-09T08:24:37.677Z,8.60
2018-05-09T08:27:05.975Z,8.80
2018-05-09T08:29:34.243Z,7.50
2018-05-09T08:32:02.514Z,7.20
2018-05-09T08:34:30.041Z,7.87
2018-05-09T08:36:57.521Z,7.70
2018-05-09T08:39:25.002Z,7.17
2018-05-09T08:41:53.278Z,7.90
2018-05-09T08:44:20.764Z,7.90
2018-05-09T08:46:48.265Z,7.67
2018-05-09T08:49:15.813Z,7.70
2018-05-09T08:51:43.302Z,8.00
2018-05-09T08:54:10.782Z,8.60
2018-05-09T08:56:38.303Z,7.63
2018-05-09T08:59:05.796Z,8.50
2018-05-09T09:01:33.282Z,7.37
2018-05-09T09:04:00.805Z,8.03
2018-05-09T09:06:28.309Z,8.10
2018-05-09T09:08:55.798Z,8.53
2018-05-09T09:11:23.314Z,7.80
2018-05-09T09:13:51.028Z,7.80
2018-05-09T09:16:18.527Z,8.30
2018-05-09T09:18:46.821Z,7.87
2018-05-09T09:21:15.072Z,8.00
2018-05-09T09:23:42.561Z,7.63
2018-05-09T09:26:10.078Z,8.40
2018-05-09T09:28:37.581Z,7.90
2018-05-09T09:31:05.127Z,9.50
2018-05-09T09:33:32.623Z,9.47
2018-05-09T09:36:00.131Z,7.37
2018-05-09T09:38:28.520Z,8.17
2018-05-09T09:40:56.779Z,8.37
2018-05-09T09:43:24.270Z,8.03
2018-05-09T09:45:51.786Z,8.80
2018-05-09T09:48:19.277Z,8.00
2018-05-09T09:50:46.799Z,7.50
2018-05-09T09:53:15.073Z,8.50
2018-05-09T09:55:43.334Z,7.73
2018-05-09T09:58:10.858Z,7.90
2018-05-09T10:00:38.341Z,8.07
2018-05-09T10:03:05.818Z,8.00
2018-05-09T10:05:33.340Z,7.27
2018-05-09T10:08:01.648Z,7.70
2018-05-09T10:10:29.137Z,7.63
2018-05-09T10:12:56.631Z,9.17
2018-05-09T10:15:24.110Z,7.93
2018-05-09T10:17:51.621Z,8.37
2018-05-09T10:20:19.876Z,9.53
2018-05-09T10:22:47.354Z,8.33
2018-05-09T10:25:14.978Z,8.23
2018-05-09T10:27:42.465Z,7.80
2018-05-09T10:30:09.959Z,7.07
2018-05-09T10:32:37.477Z,8.10
2018-05-09T10:35:04.956Z,7.00
2018-05-09T10:37:32.438Z,8.13
2018-05-09T10:39:59.958Z,8.73
2018-05-09T10:42:27.441Z,8.00
2018-05-09T10:44:55.831Z,7.30
2018-05-09T10:47:24.111Z,7.90
2018-05-09T10:49:52.371Z,7.80
2018-05-09T10:52:19.867Z,7.47
2018-05-09T10:54:48.169Z,8.23
2018-05-09T10:57:16.496Z,8.30
2018-05-09T10:59:43.905Z,7.60
2018-05-09T11:02:11.435Z,7.90
2018-05-09T11:04:38.921Z,7.77
2018-05-09T11:07:06.399Z,7.33
2018-05-09T11:09:34.087Z,8.43
2018-05-09T11:12:01.565Z,7.60
2018-05-09T11:14:29.829Z,9.17
2018-05-09T11:16:57.351Z,8.13
2018-05-09T11:19:24.841Z,8.00
2018-05-09T11:21:52.323Z,7.53
2018-05-09T11:24:19.855Z,7.70
2018-05-09T11:26:47.346Z,8.43
2018-05-09T11:29:14.834Z,8.03
2018-05-09T11:31:42.346Z,7.80
2018-05-09T11:34:09.837Z,8.97
2018-05-09T11:36:38.134Z,8.40
2018-05-09T11:39:05.626Z,8.60
2018-05-09T11:41:33.113Z,8.40
2018-05-09T11:44:00.739Z,8.20
2018-05-09T11:46:28.225Z,8.00
2018-05-09T11:48:55.751Z,8.20
2018-05-09T11:51:24.045Z,8.37
2018-05-09T11:53:51.540Z,8.20
2018-05-09T11:56:19.031Z,8.60
2018-05-09T11:58:46.559Z,8.60
2018-05-09T12:01:14.038Z,7.53
2018-05-09T12:03:42.286Z,9.20
2018-05-09T12:06:09.843Z,8.80
2018-05-09T12:08:37.338Z,9.03
2018-05-09T12:11:04.841Z,8.80
2018-05-09T12:13:32.354Z,8.93
2018-05-09T12:15:59.981Z,9.07
2018-05-09T12:18:27.470Z,7.77
2018-05-09T12:20:55.003Z,9.17
2018-05-09T12:23:23.258Z,8.73
2018-05-09T12:25:50.759Z,7.80
2018-05-09T12:28:18.298Z,8.67
2018-05-09T12:30:45.793Z,8.10
2018-05-09T12:33:13.293Z,7.97
2018-05-09T12:35:40.817Z,8.33
2018-05-09T12:38:08.297Z,8.10
2018-05-09T12:40:35.778Z,8.20
2018-05-09T12:43:03.420Z,7.50
2018-05-09T12:45:30.913Z,7.73
2018-05-09T12:47:58.406Z,8.40
2018-05-09T12:50:26.695Z,8.10
2018-05-09T12:52:54.955Z,7.93
2018-05-09T12:55:22.450Z,7.57
2018-05-09T12:57:50.756Z,8.27
2018-05-09T13:00:18.248Z,8.90
2018-05-09T13:02:45.741Z,9.00
2018-05-09T13:05:13.262Z,6.53
2018-05-09T13:07:41.527Z,7.20
2018-05-09T13:10:09.019Z,7.47
2018-05-09T13:12:36.534Z,7.50
2018-05-09T13:15:04.009Z,6.60
2018-05-09T13:17:31.491Z,6.87
2018-05-09T13:19:59.006Z,6.93
2018-05-09T13:22:26.490Z,6.93
2018-05-09T13:24:53.982Z,7.00
2018-05-09T13:27:21.510Z,7.70
2018-05-09T13:29:49.000Z,7.50
2018-05-09T13:32:16.487Z,7.63
2018-05-09T13:34:44.446Z,6.97
2018-05-09T13:37:11.938Z,7.20
2018-05-09T13:39:39.422Z,7.07
2018-05-09T13:42:06.969Z,6.77
2018-05-09T13:44:34.448Z,6.77
2018-05-09T13:47:01.929Z,7.40
2018-05-09T13:49:29.565Z,7.33
2018-05-09T13:51:57.054Z,8.00
2018-05-09T13:54:24.538Z,7.10
2018-05-09T13:56:52.063Z,6.23
2018-05-09T13:59:20.315Z,6.50
2018-05-09T14:01:47.802Z,8.07
2018-05-09T14:04:16.082Z,6.23
2018-05-09T14:06:43.579Z,6.50
2018-05-09T14:09:11.984Z,6.10
2018-05-09T14:11:39.485Z,6.53
2018-05-09T14:14:06.978Z,6.30
2018-05-09T14:16:34.507Z,5.53
2018-05-09T14:19:02.769Z,6.33
2018-05-09T14:21:31.168Z,6.13
2018-05-09T14:23:58.669Z,5.93
2018-05-09T14:26:26.164Z,5.70
2018-05-09T14:28:53.700Z,6.60
2018-05-09T14:31:21.192Z,6.20
2018-05-09T14:33:48.681Z,6.63
2018-05-09T14:36:16.305Z,5.60
2018-05-09T14:38:44.560Z,5.40
2018-05-09T14:41:12.838Z,6.30
2018-05-09T14:43:41.137Z,5.13
2018-05-09T14:46:09.394Z,10.90
2018-05-09T14:48:36.897Z,10.50
2018-05-09T14:51:04.427Z,6.17
2018-05-09T14:53:31.913Z,5.37
2018-05-09T14:55:59.411Z,6.00
2018-05-09T14:58:26.971Z,5.77
2018-05-09T15:00:55.225Z,5.53
2018-05-09T15:03:22.714Z,5.50
2018-05-09T15:05:50.248Z,5.60
2018-05-09T15:08:17.729Z,5.10
2018-05-09T15:10:45.223Z,5.50
2018-05-09T15:13:13.114Z,5.23
2018-05-09T15:15:41.422Z,5.63
2018-05-09T15:18:08.922Z,5.50
2018-05-09T15:20:36.435Z,5.70
2018-05-09T15:23:03.915Z,5.63
2018-05-09T15:25:32.230Z,6.10
2018-05-09T15:27:59.701Z,5.93
2018-05-09T15:30:27.191Z,6.10
2018-05-09T15:32:54.700Z,5.33
2018-05-09T15:35:22.236Z,5.70
2018-05-09T15:37:49.732Z,5.20
2018-05-09T15:40:17.227Z,6.00
2018-05-09T15:42:45.627Z,6.03
2018-05-09T15:45:13.883Z,5.67
2018-05-09T15:47:41.612Z,5.43
2018-05-09T15:50:09.149Z,5.10
2018-05-09T15:52:36.642Z,5.20
2018-05-09T15:55:04.142Z,5.20
2018-05-09T15:57:31.665Z,5.13
2018-05-09T15:59:59.923Z,5.53
2018-05-09T16:02:27.453Z,6.27
2018-05-09T16:04:54.947Z,5.40
2018-05-09T16:07:22.447Z,5.60
2018-05-09T16:09:49.992Z,5.50
2018-05-09T16:12:17.550Z,5.60
2018-05-09T16:14:45.443Z,5.83
2018-05-09T16:17:12.965Z,5.60
2018-05-09T16:19:41.212Z,4.90
2018-05-09T16:22:08.703Z,5.27
2018-05-09T16:24:36.235Z,5.10
2018-05-09T16:27:03.726Z,6.10
2018-05-09T16:29:31.210Z,5.03
2018-05-09T16:31:58.726Z,4.93
2018-05-09T16:34:26.222Z,5.53
2018-05-09T16:36:53.693Z,5.00
2018-05-09T16:39:21.224Z,5.13
2018-05-09T16:41:49.479Z,5.83
2018-05-09T16:44:16.961Z,5.60
2018-05-09T16:46:45.258Z,5.10
2018-05-09T16:49:13.514Z,5.60
2018-05-09T16:51:41.003Z,5.53
2018-05-09T16:54:09.308Z,4.80
2018-05-09T16:56:37.569Z,5.10
2018-05-09T16:59:05.075Z,5.60
2018-05-09T17:01:32.694Z,5.90
2018-05-09T17:04:00.884Z,6.43
2018-05-09T17:06:28.363Z,5.87
2018-05-09T17:08:55.879Z,5.70
2018-05-09T17:11:23.371Z,5.70
2018-05-09T17:13:50.889Z,7.03
2018-05-09T17:16:18.415Z,5.70
2018-05-09T17:18:45.910Z,5.50
2018-05-09T17:24:32.354Z,5.77
2018-05-09T17:26:59.877Z,5.80
2018-05-09T17:29:27.351Z,5.70
2018-05-09T17:31:54.834Z,5.70
2018-05-09T17:34:22.379Z,6.77
2018-05-09T17:36:50.716Z,5.80
2018-05-09T17:39:18.137Z,5.50
2018-05-09T17:41:46.439Z,33.20
2018-05-09T17:44:13.931Z,33.23
2018-05-09T17:46:41.429Z,20.70
2018-05-09T17:49:08.951Z,8.70
2018-05-09T17:51:36.434Z,7.00
2018-05-09T17:54:03.957Z,6.23
2018-05-09T17:56:31.478Z,6.87
2018-05-09T17:58:59.884Z,6.10
2018-05-09T18:01:28.120Z,6.60
2018-05-09T18:03:56.428Z,6.87
2018-05-09T18:06:23.939Z,7.13
2018-05-09T18:08:51.427Z,7.30
2018-05-09T18:11:18.950Z,7.00
2018-05-09T18:13:46.437Z,6.90
2018-05-09T18:16:13.930Z,7.43
2018-05-09T18:18:41.480Z,6.63
2018-05-09T18:21:09.725Z,7.13
2018-05-09T18:23:37.990Z,8.07
2018-05-09T18:26:05.513Z,7.30
2018-05-09T18:28:33.078Z,6.80
2018-05-09T18:31:00.522Z,7.60
2018-05-09T18:33:28.860Z,7.53
2018-05-09T18:35:56.351Z,8.60
2018-05-09T18:38:23.849Z,9.33
2018-05-09T18:40:52.160Z,10.67
2018-05-09T18:43:19.655Z,10.10
2018-05-09T18:45:47.142Z,9.90
2018-05-09T18:48:14.688Z,10.17
2018-05-09T18:50:42.197Z,10.33
2018-05-09T18:53:09.687Z,10.87
2018-05-09T18:55:37.978Z,11.07
2018-05-09T18:58:06.239Z,9.60
2018-05-09T19:00:33.765Z,16.90
2018-05-09T19:03:01.267Z,12.00
2018-05-09T19:05:28.759Z,11.30
2018-05-09T19:07:56.302Z,11.50
2018-05-09T19:10:23.785Z,10.97
2018-05-09T19:12:51.278Z,11.10
2018-05-09T19:15:18.820Z,11.20
2018-05-09T19:17:46.307Z,11.10
2018-05-09T19:20:13.811Z,11.00
2018-05-09T19:22:42.110Z,12.43
2018-05-09T19:25:09.618Z,11.43
2018-05-09T19:27:37.121Z,11.67
2018-05-09T19:30:04.675Z,9.60
2018-05-09T19:32:32.159Z,10.00
2018-05-09T19:34:59.664Z,10.53
2018-05-09T19:37:27.985Z,13.80
2018-05-09T19:39:55.454Z,10.97
2018-05-09T19:42:22.951Z,11.90
2018-05-09T19:44:50.485Z,11.10
2018-05-09T19:47:17.984Z,10.63
2018-05-09T19:49:45.475Z,11.93
2018-05-09T19:52:13.798Z,10.37
2018-05-09T19:54:41.294Z,10.00
2018-05-09T19:57:08.782Z,9.47
2018-05-09T19:59:36.322Z,13.20
2018-05-09T20:02:03.819Z,12.57
2018-05-09T20:04:31.338Z,10.80
2018-05-09T20:06:59.643Z,10.97
2018-05-09T20:09:27.915Z,10.97
2018-05-09T20:11:55.467Z,10.30
2018-05-09T20:14:23.002Z,9.40
2018-05-09T20:16:50.489Z,9.93
2018-05-09T20:19:18.019Z,9.30
2018-05-09T20:21:45.562Z,10.00
2018-05-09T20:24:13.827Z,10.97
2018-05-09T20:26:41.313Z,10.90
2018-05-09T20:29:08.856Z,12.93
2018-05-09T20:31:54.892Z,11.53
2018-05-09T20:34:23.181Z,10.90
2018-05-09T20:36:51.434Z,10.40
2018-05-09T20:39:18.930Z,10.13
2018-05-09T20:41:46.470Z,10.03
2018-05-09T20:44:13.953Z,7.90
2018-05-09T20:46:41.441Z,8.27
2018-05-09T20:49:08.977Z,8.27
2018-05-09T20:51:48.180Z,8.43
2018-05-09T20:54:16.476Z,8.37
2018-05-09T20:56:43.961Z,7.40
2018-05-09T20:59:11.448Z,7.97
2018-05-09T21:01:46.737Z,7.40
2018-05-09T21:04:14.215Z,6.63
2018-05-09T21:06:41.703Z,7.10
2018-05-09T21:09:10.030Z,6.83
2018-05-09T21:11:37.505Z,9.20
2018-05-09T21:14:04.995Z,6.60
2018-05-09T21:16:32.516Z,6.37
2018-05-09T21:19:00.009Z,5.90
2018-05-09T21:21:27.505Z,6.50
2018-05-09T21:23:55.015Z,6.10
2018-05-09T21:26:23.270Z,5.90
2018-05-09T21:28:50.738Z,5.20
2018-05-09T21:31:18.253Z,5.33
2018-05-09T21:33:45.771Z,5.40
2018-05-09T21:36:13.259Z,5.67
2018-05-09T21:38:40.778Z,4.90
2018-05-09T21:41:09.203Z,5.53
2018-05-09T21:43:36.737Z,5.47
2018-05-09T21:46:04.224Z,5.30
2018-05-09T21:48:31.729Z,5.17
2018-05-09T21:50:59.253Z,5.53
2018-05-09T21:53:26.759Z,4.63
2018-05-09T21:55:54.335Z,4.90
2018-05-09T21:58:21.788Z,4.90
2018-05-09T22:00:49.271Z,5.13
2018-05-09T22:03:16.772Z,4.40
2018-05-09T22:05:45.054Z,3.90
2018-05-09T22:08:12.542Z,4.80
2018-05-09T22:10:40.031Z,4.40
2018-05-09T22:13:07.551Z,5.07
2018-05-09T22:15:35.041Z,4.67
2018-05-09T22:18:03.294Z,4.73
2018-05-09T22:20:30.823Z,5.50
2018-05-09T22:22:58.326Z,5.60
2018-05-09T22:25:25.818Z,5.60
2018-05-09T22:27:53.348Z,5.40
2018-05-09T22:30:20.838Z,4.60
2018-05-09T22:32:48.317Z,5.30
2018-05-09T22:35:15.846Z,4.20
2018-05-09T22:37:43.322Z,5.80
2018-05-09T22:40:10.817Z,5.00
2018-05-09T22:42:38.353Z,4.67
2018-05-09T22:45:05.865Z,5.00
2018-05-09T22:47:33.353Z,5.13
2018-05-09T22:50:00.870Z,4.60
2018-05-09T22:52:28.363Z,4.90
2018-05-09T22:54:55.861Z,5.67
2018-05-09T22:57:23.377Z,5.27
2018-05-09T22:59:50.862Z,4.70
2018-05-09T23:02:18.351Z,5.20
2018-05-09T23:04:45.884Z,5.30
2018-05-09T23:07:13.371Z,5.43
2018-05-09T23:09:40.870Z,5.17
2018-05-09T23:12:08.390Z,5.77
2018-05-09T23:14:35.881Z,6.00
2018-05-09T23:17:03.423Z,6.37
2018-05-09T23:19:30.930Z,6.87
2018-05-09T23:21:58.415Z,6.33
2018-05-09T23:24:25.939Z,6.10
2018-05-09T23:26:53.436Z,6.57
2018-05-09T23:29:20.923Z,6.23
2018-05-09T23:31:48.447Z,7.10
2018-05-09T23:34:15.936Z,6.53
2018-05-09T23:36:43.435Z,6.93
2018-05-09T23:39:10.972Z,6.83
2018-05-09T23:41:38.453Z,7.37
2018-05-09T23:44:06.701Z,6.00
2018-05-09T23:46:34.993Z,6.43
2018-05-09T23:49:03.246Z,6.47
2018-05-09T23:51:30.744Z,6.50
2018-05-09T23:53:59.035Z,6.07
2018-05-09T23:56:26.513Z,6.17
2018-05-09T23:58:54.767Z,5.93
